Time;durP1;ratioP1;P1;durP2;ratioP2;P2;SDS_P1;SDS_P2;PMS_P1;PMS_P2;Temp;Humidity;BMP_temperature;BMP_pressure;BME280_temperature;BME280_humidity;BME280_pressure;Samples;Min_cycle;Max_cycle;Signal;HPM_P1;HPM_P2
2023/05/13 00:05:22;;;;;;;5.20;1.85;;;15.30;87.40;;;;;;10944782;32;20045;-71
2023/05/13 00:11:24;;;;;;;4.10;1.67;;;15.20;87.50;;;;;;10946262;32;20042;-72
2023/05/13 00:17:26;;;;;;;2.33;1.75;;;15.20;87.60;;;;;;10946078;32;20045;-74
2023/05/13 00:23:28;;;;;;;1.95;1.42;;;15.20;87.60;;;;;;10945877;32;20441;-72
2023/05/13 00:29:30;;;;;;;9.38;2.10;;;15.20;87.60;;;;;;10941684;32;20026;-73
2023/05/13 00:35:32;;;;;;;1.55;1.40;;;15.20;87.50;;;;;;10931895;32;20023;-73
2023/05/13 00:41:50;;;;;;;1.83;1.37;;;15.20;87.60;;;;;;10945171;32;20011;-73
2023/05/13 00:47:52;;;;;;;1.52;1.42;;;15.20;87.60;;;;;;10944822;32;20026;-72
2023/05/13 00:53:56;;;;;;;1.77;1.58;;;15.20;87.60;;;;;;10944021;32;20041;-72
2023/05/13 00:59:59;;;;;;;2.37;1.67;;;15.20;87.50;;;;;;10944487;32;20027;-71
2023/05/13 01:06:18;;;;;;;3.37;2.20;;;15.10;87.60;;;;;;10944527;32;20027;-72
2023/05/13 01:12:35;;;;;;;2.13;1.90;;;15.10;87.70;;;;;;10943965;32;20007;-72
2023/05/13 01:18:42;;;;;;;2.62;1.65;;;15.20;87.60;;;;;;10941600;32;20027;-72
2023/05/13 01:24:49;;;;;;;2.00;1.60;;;15.20;87.50;;;;;;10943440;32;20018;-72
2023/05/13 01:30:51;;;;;;;3.37;2.10;;;15.20;87.70;;;;;;10943446;32;20041;-72
2023/05/13 01:36:54;;;;;;;2.42;1.90;;;15.20;87.70;;;;;;10941872;32;20023;-72
2023/05/13 01:42:57;;;;;;;2.42;1.60;;;15.30;87.50;;;;;;10939737;32;20015;-73
2023/05/13 01:48:59;;;;;;;1.85;1.67;;;15.20;87.50;;;;;;10930542;32;20018;-72
2023/05/13 01:55:03;;;;;;;3.30;2.33;;;15.10;87.50;;;;;;10928552;32;20049;-72
2023/05/13 02:01:06;;;;;;;1.95;1.35;;;15.00;87.70;;;;;;10928188;32;20435;-72
2023/05/13 02:07:08;;;;;;;2.83;2.35;;;15.00;87.80;;;;;;10979827;32;20456;-73
2023/05/13 02:13:10;;;;;;;2.35;1.92;;;15.10;87.80;;;;;;10980596;32;20018;-72
2023/05/13 02:19:13;;;;;;;3.10;2.05;;;15.00;87.60;;;;;;10977646;32;20022;-73
2023/05/13 02:25:16;;;;;;;2.08;1.85;;;15.00;87.70;;;;;;10979724;32;20057;-73
2023/05/13 02:31:18;;;;;;;4.62;2.80;;;14.90;87.70;;;;;;10981056;32;20023;-73
2023/05/13 02:37:21;;;;;;;7.18;4.07;;;15.00;88.00;;;;;;10965499;32;20026;-72
2023/05/13 02:43:26;;;;;;;3.17;2.35;;;14.90;88.00;;;;;;10980345;32;20022;-74
2023/05/13 02:49:29;;;;;;;3.58;2.70;;;14.90;88.10;;;;;;10978796;32;20439;-73
2023/05/13 02:55:31;;;;;;;4.00;2.40;;;14.80;88.00;;;;;;10983954;32;20046;-73
2023/05/13 03:01:33;;;;;;;2.08;1.60;;;14.80;88.10;;;;;;10972206;32;20028;-73
2023/05/13 03:07:35;;;;;;;2.97;2.20;;;14.90;87.90;;;;;;10972582;32;20030;-73
2023/05/13 03:13:39;;;;;;;3.58;2.55;;;14.90;87.90;;;;;;10982578;32;20034;-72
2023/05/13 03:19:41;;;;;;;3.97;2.62;;;14.90;87.80;;;;;;10986524;32;20019;-72
2023/05/13 03:25:43;;;;;;;4.10;3.08;;;14.80;87.80;;;;;;10986666;32;20037;-71
2023/05/13 03:31:45;;;;;;;7.25;4.25;;;14.80;87.90;;;;;;10982372;32;20037;-72
2023/05/13 03:37:48;;;;;;;3.58;2.30;;;14.70;88.00;;;;;;10985578;32;20050;-72
2023/05/13 03:43:51;;;;;;;6.90;3.30;;;14.70;88.10;;;;;;10985364;32;20347;-72
2023/05/13 03:49:53;;;;;;;3.05;1.80;;;14.70;88.20;;;;;;10985749;32;20014;-73
2023/05/13 03:55:56;;;;;;;2.95;2.35;;;14.80;88.20;;;;;;10970303;32;20045;-72
2023/05/13 04:01:58;;;;;;;3.00;2.37;;;14.80;88.00;;;;;;10984223;32;20038;-71
2023/05/13 04:08:00;;;;;;;2.20;1.52;;;14.90;88.10;;;;;;10985024;32;20329;-71
2023/05/13 04:14:02;;;;;;;3.97;2.83;;;14.90;87.90;;;;;;10983845;32;20041;-72
2023/05/13 04:20:06;;;;;;;5.80;2.90;;;15.00;87.90;;;;;;10981182;32;20022;-71
2023/05/13 04:26:08;;;;;;;2.62;2.05;;;14.80;87.90;;;;;;10984594;32;20076;-72
2023/05/13 04:32:10;;;;;;;3.33;2.50;;;14.80;88.00;;;;;;10970917;32;20014;-72
2023/05/13 04:38:13;;;;;;;4.25;2.50;;;14.90;88.10;;;;;;10983461;32;20041;-71
2023/05/13 04:44:15;;;;;;;4.55;2.75;;;14.90;88.00;;;;;;10982795;32;20258;-71
2023/05/13 04:50:18;;;;;;;4.90;2.72;;;14.90;88.00;;;;;;10982915;32;20019;-72
2023/05/13 04:56:20;;;;;;;5.03;2.10;;;14.90;88.10;;;;;;10983624;32;20022;-72
2023/05/13 05:03:09;;;;;;;3.87;2.65;;;15.00;88.10;;;;;;10982740;32;20011;-71
2023/05/13 05:09:12;;;;;;;5.23;4.47;;;14.90;88.00;;;;;;10969733;32;20046;-72
2023/05/13 05:15:16;;;;;;;6.05;3.83;;;14.80;88.10;;;;;;10977218;32;20332;-74
2023/05/13 05:21:19;;;;;;;5.22;3.58;;;14.70;88.20;;;;;;10982020;32;20425;-72
2023/05/13 05:27:21;;;;;;;4.03;2.78;;;14.80;88.30;;;;;;10977040;32;20196;-72
2023/05/13 05:33:24;;;;;;;11.75;3.25;;;14.80;88.30;;;;;;10967205;32;20034;-71
2023/05/13 05:39:26;;;;;;;6.05;3.10;;;14.80;88.30;;;;;;10982001;32;20018;-71
2023/05/13 05:45:28;;;;;;;2.58;1.77;;;14.80;88.40;;;;;;10981115;32;20050;-71
2023/05/13 05:51:30;;;;;;;3.25;2.10;;;14.80;88.40;;;;;;10980288;32;20050;-72
2023/05/13 05:57:35;;;;;;;7.60;2.30;;;14.90;88.40;;;;;;10980854;32;20354;-71
2023/05/13 06:03:37;;;;;;;2.53;1.87;;;15.00;88.20;;;;;;10981140;32;20048;-73
2023/05/13 06:09:39;;;;;;;2.35;1.75;;;15.00;88.20;;;;;;10980899;32;20018;-71
2023/05/13 06:15:42;;;;;;;1.80;1.52;;;15.00;88.30;;;;;;10980264;32;20022;-71
2023/05/13 06:21:47;;;;;;;2.08;1.62;;;15.20;88.20;;;;;;10979420;32;20023;-70
2023/05/13 06:27:49;;;;;;;1.87;1.50;;;15.20;88.00;;;;;;10979333;32;20022;-72
2023/05/13 06:33:55;;;;;;;5.32;2.50;;;15.10;88.10;;;;;;10979615;32;20041;-72
2023/05/13 06:39:59;;;;;;;2.65;1.60;;;15.20;88.20;;;;;;10964713;32;20070;-73
2023/05/13 06:46:01;;;;;;;3.80;2.08;;;15.20;88.00;;;;;;10978852;32;20045;-71
2023/05/13 06:52:04;;;;;;;4.20;2.80;;;15.30;88.00;;;;;;10965649;32;20045;-72
2023/05/13 06:58:08;;;;;;;1.85;1.40;;;15.40;87.90;;;;;;10966433;32;20037;-73
2023/05/13 07:04:10;;;;;;;3.20;2.53;;;15.40;87.80;;;;;;10964485;32;20057;-72
2023/05/13 07:10:12;;;;;;;1.90;1.60;;;15.40;88.00;;;;;;10979639;32;20018;-72
2023/05/13 07:16:14;;;;;;;3.35;2.03;;;15.50;87.80;;;;;;10977659;32;20069;-71
2023/05/13 07:22:17;;;;;;;4.47;1.45;;;15.70;87.80;;;;;;10963416;32;20048;-71
2023/05/13 07:28:19;;;;;;;1.58;1.45;;;15.80;87.60;;;;;;10978237;32;20046;-71
2023/05/13 07:34:21;;;;;;;2.25;1.50;;;15.80;87.50;;;;;;10965948;32;20019;-71
2023/05/13 07:40:23;;;;;;;1.70;1.10;;;15.90;87.40;;;;;;10981195;32;20049;-71
2023/05/13 07:46:25;;;;;;;2.75;1.48;;;16.00;87.20;;;;;;10985907;32;20027;-71
2023/05/13 07:52:27;;;;;;;2.22;1.30;;;16.10;87.10;;;;;;10734841;27;7175664;-73
2023/05/13 07:58:30;;;;;;;1.48;1.35;;;16.00;86.70;;;;;;10908505;32;20058;-71
2023/05/13 08:04:32;;;;;;;1.37;1.10;;;16.00;86.60;;;;;;10895526;32;20023;-72
2023/05/13 08:10:35;;;;;;;2.25;1.40;;;16.10;86.30;;;;;;10909785;32;20194;-70
2023/05/13 08:16:37;;;;;;;2.30;1.52;;;16.20;86.10;;;;;;10909722;32;20007;-71
2023/05/13 08:22:39;;;;;;;0.93;0.85;;;16.20;85.90;;;;;;10894625;32;20058;-71
2023/05/13 08:28:41;;;;;;;2.30;1.10;;;16.30;85.80;;;;;;10909031;32;20019;-72
2023/05/13 08:34:43;;;;;;;1.10;1.00;;;16.50;85.80;;;;;;10908600;32;20015;-73
2023/05/13 08:40:46;;;;;;;2.05;1.20;;;16.70;85.60;;;;;;10904858;32;20038;-71
2023/05/13 08:46:56;;;;;;;1.37;1.27;;;16.80;85.20;;;;;;10904653;32;20424;-72
2023/05/13 08:53:01;;;;;;;1.35;1.25;;;17.00;84.90;;;;;;10906231;32;20019;-71
2023/05/13 08:59:03;;;;;;;1.35;1.15;;;17.00;84.20;;;;;;10890228;32;20019;-71
2023/05/13 09:05:07;;;;;;;1.15;1.05;;;17.00;84.50;;;;;;10905806;32;20045;-72
2023/05/13 09:11:09;;;;;;;1.92;1.40;;;17.10;84.80;;;;;;10892799;32;20078;-74
2023/05/13 09:17:11;;;;;;;1.35;1.15;;;17.10;84.90;;;;;;10907565;32;20054;-72
2023/05/13 09:23:14;;;;;;;1.50;1.10;;;17.20;85.00;;;;;;10907274;32;20015;-71
2023/05/13 09:29:25;;;;;;;1.35;1.23;;;17.20;84.90;;;;;;10907131;32;20016;-75
2023/05/13 09:35:30;;;;;;;2.70;1.65;;;17.40;84.40;;;;;;10906020;32;20015;-73
2023/05/13 09:41:33;;;;;;;1.33;1.10;;;17.60;83.70;;;;;;10906001;32;20015;-71
2023/05/13 09:47:36;;;;;;;5.57;1.67;;;17.80;83.20;;;;;;10891410;32;20030;-73
2023/05/13 09:53:40;;;;;;;0.95;0.70;;;17.80;83.30;;;;;;10904020;32;20016;-72
2023/05/13 09:59:42;;;;;;;1.42;1.33;;;17.80;83.10;;;;;;10890777;32;20028;-73
2023/05/13 10:05:44;;;;;;;0.93;0.82;;;17.90;82.70;;;;;;10903839;32;20023;-73
2023/05/13 10:11:47;;;;;;;5.07;1.27;;;18.10;82.00;;;;;;10903341;32;20050;-75
2023/05/13 10:17:49;;;;;;;1.30;1.20;;;18.40;82.40;;;;;;10888013;32;20058;-73
2023/05/13 10:23:52;;;;;;;0.90;0.70;;;18.50;81.90;;;;;;10905355;32;20015;-72
2023/05/13 10:29:55;;;;;;;1.05;0.90;;;18.50;81.90;;;;;;10891972;32;20015;-76
2023/05/13 10:36:21;;;;;;;1.17;0.60;;;18.90;81.30;;;;;;10901773;32;20014;-71
2023/05/13 10:42:32;;;;;;;1.85;0.85;;;19.10;81.60;;;;;;10877759;32;20027;-78
2023/05/13 10:48:48;;;;;;;0.62;0.62;;;19.50;80.70;;;;;;10904809;32;20416;-71
2023/05/13 10:55:01;;;;;;;2.00;0.82;;;19.80;80.10;;;;;;10886967;32;20050;-75
2023/05/13 11:01:27;;;;;;;2.28;1.15;;;20.10;79.40;;;;;;10904098;32;20015;-77
2023/05/13 11:07:29;;;;;;;1.00;0.73;;;19.70;77.80;;;;;;10825672;32;20078;-72
2023/05/13 11:13:36;;;;;;;3.08;1.48;;;19.20;78.10;;;;;;10824961;32;20024;-78
2023/05/13 11:19:47;;;;;;;3.65;1.42;;;18.80;78.10;;;;;;10833135;32;20019;-74
2023/05/13 11:26:15;;;;;;;1.42;1.33;;;18.60;78.10;;;;;;10829101;32;20089;-72
2023/05/13 11:32:50;;;;;;;2.50;1.30;;;18.40;78.20;;;;;;10815736;33;20028;-74
2023/05/13 11:38:52;;;;;;;2.33;1.10;;;18.40;78.40;;;;;;10795638;33;20043;-79
2023/05/13 11:44:54;;;;;;;1.77;1.20;;;18.20;78.60;;;;;;10826982;32;20032;-74
2023/05/13 11:50:56;;;;;;;1.70;1.33;;;18.30;78.60;;;;;;10831301;32;20058;-73
2023/05/13 11:56:58;;;;;;;3.72;1.90;;;18.30;78.10;;;;;;10819175;32;20020;-73
2023/05/13 12:03:10;;;;;;;3.10;1.00;;;18.30;78.10;;;;;;10831494;32;20020;-72
2023/05/13 12:09:12;;;;;;;1.87;1.05;;;19.00;77.20;;;;;;10831249;32;20386;-75
2023/05/13 12:15:19;;;;;;;1.55;1.33;;;19.80;75.90;;;;;;10889519;32;20027;-76
2023/05/13 12:21:21;;;;;;;0.60;0.60;;;20.20;74.90;;;;;;10853036;32;20066;-76
2023/05/13 12:27:23;;;;;;;0.85;0.77;;;20.30;75.90;;;;;;10869193;32;20452;-73
2023/05/13 12:33:30;;;;;;;2.28;1.27;;;20.20;74.90;;;;;;10871796;32;20024;-77
2023/05/13 12:39:32;;;;;;;1.55;0.77;;;19.90;76.00;;;;;;10856549;32;20077;-73
2023/05/13 12:45:34;;;;;;;1.02;0.88;;;19.80;75.70;;;;;;10871328;32;20053;-73
2023/05/13 12:51:36;;;;;;;1.58;1.10;;;20.30;74.10;;;;;;10867100;32;20019;-74
2023/05/13 12:57:43;;;;;;;3.22;1.30;;;20.70;73.30;;;;;;10871090;32;20028;-75
2023/05/13 13:03:45;;;;;;;1.85;1.08;;;20.70;73.20;;;;;;10869854;32;20020;-75
2023/05/13 13:09:47;;;;;;;0.85;0.70;;;20.70;73.50;;;;;;10870514;32;20027;-77
2023/05/13 13:15:49;;;;;;;1.60;0.70;;;20.80;72.20;;;;;;10870383;32;20077;-74
2023/05/13 13:21:51;;;;;;;0.80;0.65;;;21.00;70.40;;;;;;10868448;32;20331;-74
2023/05/13 13:28:37;;;;;;;2.33;0.85;;;21.10;70.80;;;;;;10868931;32;20027;-76
2023/05/13 13:34:39;;;;;;;1.37;0.95;;;21.10;71.80;;;;;;10866930;32;20070;-74
2023/05/13 13:40:41;;;;;;;2.00;0.90;;;20.80;72.50;;;;;;10866992;32;20024;-76
2023/05/13 13:46:44;;;;;;;0.75;0.73;;;20.60;72.30;;;;;;10869662;32;20381;-75
2023/05/13 13:52:46;;;;;;;1.40;0.88;;;20.40;73.10;;;;;;10896843;32;20053;-74
2023/05/13 13:58:48;;;;;;;3.78;1.23;;;20.40;74.00;;;;;;10932679;32;20034;-75
2023/05/13 14:04:51;;;;;;;0.90;0.80;;;20.30;74.10;;;;;;10888940;32;20054;-74
2023/05/13 14:10:53;;;;;;;6.50;1.55;;;20.50;74.10;;;;;;10901069;32;20050;-73
2023/05/13 14:16:56;;;;;;;1.65;0.98;;;20.40;74.10;;;;;;10905354;32;20050;-76
2023/05/13 14:22:58;;;;;;;1.17;0.80;;;20.70;72.70;;;;;;10905325;32;20065;-75
2023/05/13 14:29:00;;;;;;;2.08;1.17;;;20.80;72.70;;;;;;10905145;32;20452;-74
2023/05/13 14:35:03;;;;;;;2.62;1.20;;;20.70;73.40;;;;;;10903948;32;20436;-74
2023/05/13 14:41:05;;;;;;;1.15;0.90;;;20.60;75.20;;;;;;10902447;32;20031;-74
2023/05/13 14:47:08;;;;;;;1.27;1.17;;;20.70;74.70;;;;;;10898316;32;20019;-76
2023/05/13 14:53:10;;;;;;;1.80;0.88;;;20.60;75.40;;;;;;10874055;32;20054;-75
2023/05/13 14:59:13;;;;;;;1.83;0.90;;;20.60;75.10;;;;;;10872335;32;20027;-75
2023/05/13 15:05:15;;;;;;;0.75;0.75;;;20.60;75.10;;;;;;10874308;32;20050;-72
2023/05/13 15:11:17;;;;;;;1.23;0.80;;;20.60;75.00;;;;;;10859660;32;20039;-74
2023/05/13 15:17:20;;;;;;;0.70;0.70;;;20.50;75.30;;;;;;10892620;32;20388;-72
2023/05/13 15:23:23;;;;;;;4.53;1.95;;;20.70;75.00;;;;;;10909190;32;20046;-76
2023/05/13 15:29:25;;;;;;;1.30;1.00;;;20.70;75.40;;;;;;10918364;32;20353;-72
2023/05/13 15:35:28;;;;;;;1.35;0.65;;;20.80;74.80;;;;;;10909049;32;20424;-73
2023/05/13 15:41:30;;;;;;;2.67;1.15;;;20.90;75.90;;;;;;10910895;32;20073;-75
2023/05/13 15:47:32;;;;;;;1.23;0.88;;;21.00;76.70;;;;;;10910014;32;20054;-72
2023/05/13 15:53:34;;;;;;;2.42;1.80;;;20.80;76.30;;;;;;10896532;27;20037;-74
2023/05/13 15:59:37;;;;;;;1.70;1.27;;;20.60;76.80;;;;;;10909384;32;20042;-74
2023/05/13 16:05:39;;;;;;;1.12;0.98;;;20.40;76.50;;;;;;10907672;32;20043;-72
2023/05/13 16:11:42;;;;;;;2.62;1.52;;;20.30;76.50;;;;;;10907754;32;20050;-73
2023/05/13 16:17:44;;;;;;;1.73;1.40;;;20.30;76.50;;;;;;10908490;32;20043;-73
2023/05/13 16:23:46;;;;;;;3.97;1.35;;;20.20;76.90;;;;;;10908666;32;20038;-76
2023/05/13 16:29:50;;;;;;;1.60;1.42;;;20.20;76.50;;;;;;10908598;32;20011;-73
2023/05/13 16:35:53;;;;;;;2.62;1.35;;;20.20;76.80;;;;;;10907846;32;20015;-74
2023/05/13 16:41:55;;;;;;;3.00;1.80;;;20.10;77.30;;;;;;10907626;32;20421;-75
2023/05/13 16:47:57;;;;;;;2.37;1.33;;;20.30;77.10;;;;;;10908409;32;20428;-74
2023/05/13 16:54:00;;;;;;;3.95;1.70;;;20.30;77.60;;;;;;10903103;32;20049;-72
2023/05/13 17:00:02;;;;;;;3.00;2.00;;;20.30;78.30;;;;;;10908158;32;20369;-73
2023/05/13 17:06:06;;;;;;;7.37;2.05;;;19.90;78.60;;;;;;10907940;32;20027;-71
2023/05/13 17:12:08;;;;;;;3.90;1.98;;;19.60;79.80;;;;;;10906342;32;20049;-73
2023/05/13 17:18:10;;;;;;;2.83;1.20;;;19.70;79.60;;;;;;10906926;32;20428;-73
2023/05/13 17:24:13;;;;;;;1.67;1.40;;;19.70;80.00;;;;;;10903699;32;20019;-72
2023/05/13 17:30:15;;;;;;;1.75;1.25;;;19.80;79.20;;;;;;10905632;32;20050;-72
2023/05/13 17:36:18;;;;;;;4.10;1.30;;;19.60;79.50;;;;;;10901206;32;20057;-76
2023/05/13 17:42:20;;;;;;;2.62;1.02;;;19.50;79.80;;;;;;10906494;32;20011;-74
2023/05/13 17:48:22;;;;;;;4.40;2.25;;;19.30;80.10;;;;;;10905613;32;20027;-71
2023/05/13 17:54:25;;;;;;;1.85;1.17;;;19.30;80.30;;;;;;10902610;32;20024;-71
2023/05/13 18:00:27;;;;;;;1.30;1.20;;;19.30;79.80;;;;;;10905021;32;20019;-71
2023/05/13 18:06:29;;;;;;;2.42;1.10;;;19.20;80.10;;;;;;10901975;32;20027;-72
2023/05/13 18:12:32;;;;;;;2.03;1.20;;;19.10;80.20;;;;;;10903694;32;20049;-73
2023/05/13 18:18:34;;;;;;;1.83;1.10;;;18.90;80.60;;;;;;10904373;32;20042;-72
2023/05/13 18:24:37;;;;;;;1.45;1.25;;;18.80;80.40;;;;;;10904787;32;20043;-72
2023/05/13 18:30:39;;;;;;;2.65;1.33;;;18.70;80.60;;;;;;10902787;32;20038;-72
2023/05/13 18:36:42;;;;;;;2.17;1.20;;;18.80;80.90;;;;;;10905215;32;20012;-71
2023/05/13 18:42:44;;;;;;;1.00;0.90;;;18.70;80.70;;;;;;10904269;32;20050;-72
2023/05/13 18:48:46;;;;;;;1.90;1.30;;;18.70;81.10;;;;;;10904984;32;20019;-70
2023/05/13 18:54:49;;;;;;;1.95;1.48;;;18.60;81.30;;;;;;10903750;32;20353;-72
2023/05/13 19:00:51;;;;;;;1.98;1.12;;;18.70;81.30;;;;;;10887280;32;20086;-71
2023/05/13 19:06:53;;;;;;;1.77;1.00;;;18.60;81.40;;;;;;10904103;32;20054;-71
2023/05/13 19:12:56;;;;;;;1.70;1.35;;;18.50;81.60;;;;;;10898273;32;20031;-71
2023/05/13 19:18:58;;;;;;;2.25;1.45;;;18.60;81.60;;;;;;10900978;32;20023;-71
2023/05/13 19:25:00;;;;;;;2.20;1.30;;;18.60;81.40;;;;;;10904389;32;20038;-71
2023/05/13 19:31:04;;;;;;;1.83;1.20;;;18.60;81.40;;;;;;10903639;32;20028;-71
2023/05/13 19:37:06;;;;;;;1.58;1.10;;;18.60;81.50;;;;;;10907920;32;20011;-71
2023/05/13 19:43:09;;;;;;;1.23;1.10;;;18.60;81.40;;;;;;10909906;32;20019;-71
2023/05/13 19:49:11;;;;;;;1.77;1.00;;;18.50;81.30;;;;;;10895980;32;20066;-71
2023/05/13 19:55:13;;;;;;;1.83;1.10;;;18.50;81.20;;;;;;10907504;32;20039;-71
2023/05/13 20:01:16;;;;;;;1.15;1.02;;;18.40;81.20;;;;;;10909325;32;20037;-71
2023/05/13 20:07:18;;;;;;;2.20;1.50;;;18.40;81.20;;;;;;10910282;32;20436;-71
2023/05/13 20:13:20;;;;;;;2.17;1.35;;;18.30;81.00;;;;;;10909256;32;20279;-71
2023/05/13 20:19:22;;;;;;;2.65;1.25;;;18.30;81.10;;;;;;10909317;32;20424;-71
2023/05/13 20:25:25;;;;;;;4.10;2.35;;;18.20;81.20;;;;;;10904929;32;20322;-71
2023/05/13 20:31:27;;;;;;;2.55;1.85;;;18.20;81.10;;;;;;10908795;32;20045;-71
2023/05/13 20:37:30;;;;;;;2.55;1.30;;;18.10;81.20;;;;;;10908185;32;20015;-71
2023/05/13 20:43:34;;;;;;;3.05;1.95;;;18.00;81.30;;;;;;10907769;32;20023;-71
2023/05/13 20:49:37;;;;;;;2.25;1.95;;;18.00;81.20;;;;;;10908594;32;20377;-71
2023/05/13 20:55:39;;;;;;;2.17;1.80;;;18.00;81.10;;;;;;10907044;32;20427;-71
2023/05/13 21:01:46;;;;;;;4.12;2.55;;;17.90;81.20;;;;;;10908014;32;20047;-71
2023/05/13 21:07:48;;;;;;;2.62;1.92;;;17.90;81.30;;;;;;10907267;32;20039;-71
2023/05/13 21:13:50;;;;;;;2.70;2.17;;;17.90;81.30;;;;;;10906602;32;20031;-71
2023/05/13 21:19:52;;;;;;;3.05;2.35;;;17.90;81.50;;;;;;10907398;32;20341;-71
2023/05/13 21:25:55;;;;;;;2.47;2.28;;;17.80;81.70;;;;;;10907152;32;20019;-71
2023/05/13 21:31:57;;;;;;;4.57;3.40;;;17.80;82.00;;;;;;10907138;32;20346;-71
2023/05/13 21:37:59;;;;;;;4.43;2.40;;;17.80;81.90;;;;;;10902326;32;20057;-71
2023/05/13 21:44:01;;;;;;;3.33;2.45;;;17.70;82.20;;;;;;10906686;32;20554;-71
2023/05/13 21:50:06;;;;;;;1.98;1.48;;;17.70;82.30;;;;;;10905010;32;20042;-71
2023/05/13 21:56:08;;;;;;;1.90;1.60;;;17.70;82.30;;;;;;10902033;32;20023;-71
2023/05/13 22:02:10;;;;;;;1.87;1.73;;;17.60;82.20;;;;;;10905781;32;20405;-71
2023/05/13 22:08:12;;;;;;;2.42;1.80;;;17.60;82.10;;;;;;10905936;32;20045;-71
2023/05/13 22:14:16;;;;;;;2.42;1.70;;;17.60;82.10;;;;;;10901912;32;20415;-71
2023/05/13 22:20:40;;;;;;;3.17;1.98;;;17.60;82.00;;;;;;10905110;32;20016;-71
2023/05/13 22:26:42;;;;;;;3.45;2.08;;;17.60;81.90;;;;;;10905153;32;20058;-71
2023/05/13 22:32:44;;;;;;;2.75;1.98;;;17.50;81.90;;;;;;10904612;32;20019;-71
2023/05/13 22:38:46;;;;;;;1.85;1.20;;;17.50;81.90;;;;;;10904283;32;20011;-71
2023/05/13 22:44:48;;;;;;;3.22;2.05;;;17.40;81.90;;;;;;10905159;32;20412;-71
2023/05/13 22:50:55;;;;;;;1.50;1.40;;;17.40;81.90;;;;;;10903685;32;20120;-71
2023/05/13 22:57:00;;;;;;;4.15;2.45;;;17.30;81.90;;;;;;10904215;32;20023;-71
2023/05/13 23:03:03;;;;;;;2.20;1.80;;;17.30;81.90;;;;;;10904146;32;20381;-71
2023/05/13 23:09:06;;;;;;;2.75;1.58;;;17.20;81.90;;;;;;10905082;32;20019;-71
2023/05/13 23:15:10;;;;;;;3.17;2.25;;;17.20;82.00;;;;;;10911978;32;20011;-71
2023/05/13 23:21:12;;;;;;;2.00;1.45;;;17.20;82.10;;;;;;10911777;32;20027;-71
2023/05/13 23:27:15;;;;;;;3.20;1.87;;;17.10;82.50;;;;;;10910119;32;20027;-71
2023/05/13 23:33:43;;;;;;;1.95;1.35;;;17.00;82.60;;;;;;10911341;32;20046;-71
2023/05/13 23:39:45;;;;;;;1.87;1.40;;;17.00;82.80;;;;;;10910806;32;20046;-71
2023/05/13 23:45:47;;;;;;;2.00;1.55;;;17.00;82.80;;;;;;10909422;32;20027;-71
2023/05/13 23:51:49;;;;;;;1.48;1.23;;;17.00;82.70;;;;;;10912520;27;20042;-71
2023/05/13 23:57:51;;;;;;;1.20;1.12;;;17.00;82.90;;;;;;10910454;32;20097;-71
